sensor_id;sensor_type;location;lat;lon;timestamp;pressure;altitude;pressure_sealevel;temperature;humidity
40502;BME280;29631;49.168;9.848;2022-11-04T00:01:48;95630.69;;;15.86;91.38
40502;BME280;29631;49.168;9.848;2022-11-04T00:04:17;95633.06;;;15.88;91.50
40502;BME280;29631;49.168;9.848;2022-11-04T00:06:43;95638.94;;;15.95;90.86
40502;BME280;29631;49.168;9.848;2022-11-04T00:09:14;95628.31;;;15.90;90.99
40502;BME280;29631;49.168;9.848;2022-11-04T00:11:40;95612.28;;;15.65;91.18
40502;BME280;29631;49.168;9.848;2022-11-04T00:14:24;95639.44;;;15.82;91.18
40502;BME280;29631;49.168;9.848;2022-11-04T00:16:50;95649.78;;;15.78;91.62
40502;BME280;29631;49.168;9.848;2022-11-04T00:19:34;95648.72;;;15.74;91.71
40502;BME280;29631;49.168;9.848;2022-11-04T00:22:18;95650.56;;;15.69;90.91
40502;BME280;29631;49.168;9.848;2022-11-04T00:25:03;95648.44;;;15.71;91.27
40502;BME280;29631;49.168;9.848;2022-11-04T00:27:48;95643.66;;;15.68;91.04
40502;BME280;29631;49.168;9.848;2022-11-04T00:30:33;95634.63;;;15.69;90.93
40502;BME280;29631;49.168;9.848;2022-11-04T00:32:58;95639.69;;;15.75;91.59
40502;BME280;29631;49.168;9.848;2022-11-04T00:35:49;95633.06;;;15.73;90.76
40502;BME280;29631;49.168;9.848;2022-11-04T00:38:16;95642.63;;;15.74;91.05
40502;BME280;29631;49.168;9.848;2022-11-04T00:40:42;95643.94;;;15.71;91.61
40502;BME280;29631;49.168;9.848;2022-11-04T00:43:08;95645.78;;;15.66;90.71
40502;BME280;29631;49.168;9.848;2022-11-04T00:45:34;95651.09;;;15.71;91.27
40502;BME280;29631;49.168;9.848;2022-11-04T00:47:59;95614.13;;;15.54;91.42
40502;BME280;29631;49.168;9.848;2022-11-04T00:50:25;95632.00;;;15.74;91.63
40502;BME280;29631;49.168;9.848;2022-11-04T00:52:51;95643.69;;;15.78;91.61
40502;BME280;29631;49.168;9.848;2022-11-04T00:55:17;95618.13;;;15.62;91.05
40502;BME280;29631;49.168;9.848;2022-11-04T00:57:42;95642.84;;;15.67;91.63
40502;BME280;29631;49.168;9.848;2022-11-04T01:00:09;95639.38;;;15.62;90.74
40502;BME280;29631;49.168;9.848;2022-11-04T01:02:35;95645.50;;;15.62;91.12
40502;BME280;29631;49.168;9.848;2022-11-04T01:05:00;95651.34;;;15.64;91.15
40502;BME280;29631;49.168;9.848;2022-11-04T01:07:26;95651.59;;;15.58;91.88
40502;BME280;29631;49.168;9.848;2022-11-04T01:09:52;95651.59;;;15.58;90.99
40502;BME280;29631;49.168;9.848;2022-11-04T01:12:17;95638.81;;;15.55;91.13
40502;BME280;29631;49.168;9.848;2022-11-04T01:14:43;95625.50;;;15.40;91.25
40502;BME280;29631;49.168;9.848;2022-11-04T01:17:09;95652.16;;;15.70;90.99
40502;BME280;29631;49.168;9.848;2022-11-04T01:19:35;95648.69;;;15.64;91.16
40502;BME280;29631;49.168;9.848;2022-11-04T01:22:00;95645.22;;;15.59;90.96
40502;BME280;29631;49.168;9.848;2022-11-04T01:24:27;95649.72;;;15.58;91.20
40502;BME280;29631;49.168;9.848;2022-11-04T01:26:52;95666.50;;;15.64;91.18
40502;BME280;29631;49.168;9.848;2022-11-04T01:29:18;95688.81;;;15.63;91.19
40502;BME280;29631;49.168;9.848;2022-11-04T01:31:44;95637.94;;;15.34;90.53
40502;BME280;29631;49.168;9.848;2022-11-04T01:34:09;95671.44;;;15.40;91.15
40502;BME280;29631;49.168;9.848;2022-11-04T01:36:35;95690.38;;;15.54;90.55
40502;BME280;29631;49.168;9.848;2022-11-04T01:39:01;95666.41;;;15.49;90.64
40502;BME280;29631;49.168;9.848;2022-11-04T01:41:30;95670.94;;;15.48;91.45
40502;BME280;29631;49.168;9.848;2022-11-04T01:44:03;95619.25;;;15.20;90.87
40502;BME280;29631;49.168;9.848;2022-11-04T01:46:38;95686.41;;;15.61;91.11
40502;BME280;29631;49.168;9.848;2022-11-04T01:49:32;95692.53;;;15.62;90.97
40502;BME280;29631;49.168;9.848;2022-11-04T01:52:10;95703.44;;;15.65;91.13
40502;BME280;29631;49.168;9.848;2022-11-04T01:54:38;95698.13;;;15.65;90.78
40502;BME280;29631;49.168;9.848;2022-11-04T01:57:08;95692.00;;;15.65;90.48
40502;BME280;29631;49.168;9.848;2022-11-04T01:59:38;95675.22;;;15.54;90.94
40502;BME280;29631;49.168;9.848;2022-11-04T02:02:05;95690.94;;;15.61;90.32
40502;BME280;29631;49.168;9.848;2022-11-04T02:04:32;95687.19;;;15.62;90.74
40502;BME280;29631;49.168;9.848;2022-11-04T02:07:06;95693.06;;;15.64;90.93
40502;BME280;29631;49.168;9.848;2022-11-04T02:09:35;95695.78;;;15.74;90.92
40502;BME280;29631;49.168;9.848;2022-11-04T02:12:02;95684.06;;;15.70;90.56
40502;BME280;29631;49.168;9.848;2022-11-04T02:14:47;95667.56;;;15.63;90.55
40502;BME280;29631;49.168;9.848;2022-11-04T02:17:35;95694.69;;;15.70;91.00
40502;BME280;29631;49.168;9.848;2022-11-04T02:25:37;95674.44;;;15.54;90.76
40502;BME280;29631;49.168;9.848;2022-11-04T02:35:07;95688.88;;;15.73;90.15
40502;BME280;29631;49.168;9.848;2022-11-04T02:38:06;95702.16;;;15.78;90.13
40502;BME280;29631;49.168;9.848;2022-11-04T02:41:00;95703.22;;;15.82;90.56
40502;BME280;29631;49.168;9.848;2022-11-04T02:43:53;95699.00;;;15.86;89.88
40502;BME280;29631;49.168;9.848;2022-11-04T02:49:26;95703.22;;;15.82;90.19
40502;BME280;29631;49.168;9.848;2022-11-04T02:52:17;95688.31;;;15.76;89.55
40502;BME280;29631;49.168;9.848;2022-11-04T02:54:52;95706.44;;;15.79;89.54
40502;BME280;29631;49.168;9.848;2022-11-04T02:57:28;95696.31;;;15.81;90.09
40502;BME280;29631;49.168;9.848;2022-11-04T03:00:07;95700.06;;;15.80;89.73
40502;BME280;29631;49.168;9.848;2022-11-04T03:02:39;95692.09;;;15.80;89.72
40502;BME280;29631;49.168;9.848;2022-11-04T03:05:10;95697.63;;;15.78;89.83
40502;BME280;29631;49.168;9.848;2022-11-04T03:07:40;95700.84;;;15.80;89.94
40502;BME280;29631;49.168;9.848;2022-11-04T03:10:33;95710.69;;;15.80;90.47
40502;BME280;29631;49.168;9.848;2022-11-04T03:13:41;95709.09;;;15.79;89.53
40502;BME280;29631;49.168;9.848;2022-11-04T03:16:10;95703.72;;;15.69;89.98
40502;BME280;29631;49.168;9.848;2022-11-04T03:19:05;95713.31;;;15.75;90.02
40502;BME280;29631;49.168;9.848;2022-11-04T03:21:35;95718.88;;;15.68;89.41
40502;BME280;29631;49.168;9.848;2022-11-04T03:24:04;95723.91;;;15.65;89.36
40502;BME280;29631;49.168;9.848;2022-11-04T03:26:38;95726.28;;;15.66;89.41
40502;BME280;29631;49.168;9.848;2022-11-04T03:29:31;95719.91;;;15.62;89.16
40502;BME280;29631;49.168;9.848;2022-11-04T03:34:37;95727.59;;;15.59;88.90
40502;BME280;29631;49.168;9.848;2022-11-04T03:37:03;95722.53;;;15.57;88.67
40502;BME280;29631;49.168;9.848;2022-11-04T03:39:29;95720.09;;;15.46;89.08
40502;BME280;29631;49.168;9.848;2022-11-04T03:41:57;95724.81;;;15.39;89.49
40502;BME280;29631;49.168;9.848;2022-11-04T03:44:25;95741.84;;;15.43;89.43
40502;BME280;29631;49.168;9.848;2022-11-04T03:46:54;95727.47;;;15.34;88.95
40502;BME280;29631;49.168;9.848;2022-11-04T03:49:21;95744.72;;;15.31;88.69
40502;BME280;29631;49.168;9.848;2022-11-04T03:51:49;95739.09;;;15.28;89.56
40502;BME280;29631;49.168;9.848;2022-11-04T03:54:15;95712.97;;;15.15;89.22
40502;BME280;29631;49.168;9.848;2022-11-04T04:00:14;95735.38;;;15.29;88.92
40502;BME280;29631;49.168;9.848;2022-11-04T04:05:41;95730.88;;;15.29;89.26
40502;BME280;29631;49.168;9.848;2022-11-04T04:08:41;95744.91;;;15.25;89.72
40502;BME280;29631;49.168;9.848;2022-11-04T04:11:29;95745.47;;;15.27;89.28
40502;BME280;29631;49.168;9.848;2022-11-04T04:17:18;95725.13;;;15.11;88.79
40502;BME280;29631;49.168;9.848;2022-11-04T04:20:17;95743.81;;;15.21;89.18
40502;BME280;29631;49.168;9.848;2022-11-04T04:23:02;95740.09;;;15.22;89.16
40502;BME280;29631;49.168;9.848;2022-11-04T04:25:51;95741.09;;;15.16;89.18
40502;BME280;29631;49.168;9.848;2022-11-04T04:28:37;95740.03;;;15.17;89.17
40502;BME280;29631;49.168;9.848;2022-11-04T04:31:05;95741.63;;;15.13;89.06
40502;BME280;29631;49.168;9.848;2022-11-04T04:33:31;95752.81;;;15.20;88.93
40502;BME280;29631;49.168;9.848;2022-11-04T04:35:58;95746.47;;;15.21;88.59
40502;BME280;29631;49.168;9.848;2022-11-04T04:38:28;95754.91;;;15.13;89.31
40502;BME280;29631;49.168;9.848;2022-11-04T04:41:27;95751.78;;;15.21;88.88
40502;BME280;29631;49.168;9.848;2022-11-04T04:44:25;95750.22;;;15.25;88.56
40502;BME280;29631;49.168;9.848;2022-11-04T04:47:22;95751.84;;;15.26;89.35
40502;BME280;29631;49.168;9.848;2022-11-04T04:49:57;95748.81;;;15.18;88.65
40502;BME280;29631;49.168;9.848;2022-11-04T04:52:32;95755.44;;;15.15;89.18
40502;BME280;29631;49.168;9.848;2022-11-04T04:54:58;95763.94;;;15.17;89.10
40502;BME280;29631;49.168;9.848;2022-11-04T04:57:24;95755.94;;;15.12;88.70
40502;BME280;29631;49.168;9.848;2022-11-04T04:59:50;95757.56;;;15.13;88.63
40502;BME280;29631;49.168;9.848;2022-11-04T05:02:16;95745.78;;;15.04;88.38
40502;BME280;29631;49.168;9.848;2022-11-04T05:04:42;95759.34;;;15.08;88.35
40502;BME280;29631;49.168;9.848;2022-11-04T05:07:07;95756.94;;;15.01;87.98
40502;BME280;29631;49.168;9.848;2022-11-04T05:09:35;95741.47;;;14.93;88.68
40502;BME280;29631;49.168;9.848;2022-11-04T05:12:01;95743.56;;;14.91;88.05
40502;BME280;29631;49.168;9.848;2022-11-04T05:14:27;95683.06;;;14.57;88.27
40502;BME280;29631;49.168;9.848;2022-11-04T05:16:53;95727.63;;;14.91;88.27
40502;BME280;29631;49.168;9.848;2022-11-04T05:19:19;95717.00;;;14.86;88.61
40502;BME280;29631;49.168;9.848;2022-11-04T05:21:45;95706.84;;;14.78;88.13
40502;BME280;29631;49.168;9.848;2022-11-04T05:24:10;95711.66;;;14.81;87.97
40502;BME280;29631;49.168;9.848;2022-11-04T05:26:36;95707.97;;;14.82;88.23
40502;BME280;29631;49.168;9.848;2022-11-04T05:29:02;95729.47;;;14.86;88.63
40502;BME280;29631;49.168;9.848;2022-11-04T05:31:27;95738.56;;;14.95;88.17
40502;BME280;29631;49.168;9.848;2022-11-04T05:33:55;95720.47;;;14.87;88.84
40502;BME280;29631;49.168;9.848;2022-11-04T05:36:21;95713.31;;;14.92;88.26
40502;BME280;29631;49.168;9.848;2022-11-04T05:38:54;95692.63;;;14.89;88.01
40502;BME280;29631;49.168;9.848;2022-11-04T05:41:20;95708.88;;;15.03;88.29
40502;BME280;29631;49.168;9.848;2022-11-04T05:43:58;95704.94;;;15.10;88.54
40502;BME280;29631;49.168;9.848;2022-11-04T05:46:24;95690.03;;;15.04;88.63
40502;BME280;29631;49.168;9.848;2022-11-04T05:48:51;95709.78;;;15.18;87.89
40502;BME280;29631;49.168;9.848;2022-11-04T05:51:25;95694.88;;;15.12;88.16
40502;BME280;29631;49.168;9.848;2022-11-04T05:53:52;95690.34;;;15.08;88.63
40502;BME280;29631;49.168;9.848;2022-11-04T05:56:18;95693.75;;;15.03;88.66
40502;BME280;29631;49.168;9.848;2022-11-04T05:58:44;95701.47;;;15.05;88.91
40502;BME280;29631;49.168;9.848;2022-11-04T06:01:34;95717.94;;;15.07;88.40
40502;BME280;29631;49.168;9.848;2022-11-04T06:04:02;95717.16;;;15.11;88.05
40502;BME280;29631;49.168;9.848;2022-11-04T06:06:32;95697.25;;;15.09;88.65
40502;BME280;29631;49.168;9.848;2022-11-04T06:08:59;95721.50;;;15.22;88.00
40502;BME280;29631;49.168;9.848;2022-11-04T06:11:27;95721.31;;;15.28;88.29
40502;BME280;29631;49.168;9.848;2022-11-04T06:13:55;95699.44;;;15.17;88.27
40502;BME280;29631;49.168;9.848;2022-11-04T06:16:22;95720.00;;;15.36;88.47
40502;BME280;29631;49.168;9.848;2022-11-04T06:18:48;95728.56;;;15.43;88.09
40502;BME280;29631;49.168;9.848;2022-11-04T06:23:41;95754.94;;;15.54;88.65
40502;BME280;29631;49.168;9.848;2022-11-04T06:26:08;95741.91;;;15.53;87.91
40502;BME280;29631;49.168;9.848;2022-11-04T06:28:34;95744.84;;;15.56;88.00
40502;BME280;29631;49.168;9.848;2022-11-04T06:31:03;95763.22;;;15.63;88.16
40502;BME280;29631;49.168;9.848;2022-11-04T06:33:30;95737.50;;;15.27;88.64
40502;BME280;29631;49.168;9.848;2022-11-04T06:36:01;95771.94;;;15.58;88.45
40502;BME280;29631;49.168;9.848;2022-11-04T06:38:30;95768.47;;;15.53;87.79
40502;BME280;29631;49.168;9.848;2022-11-04T06:40:56;95780.72;;;15.59;88.16
40502;BME280;29631;49.168;9.848;2022-11-04T06:43:22;95781.22;;;15.56;87.58
40502;BME280;29631;49.168;9.848;2022-11-04T06:45:59;95782.84;;;15.62;87.65
40502;BME280;29631;49.168;9.848;2022-11-04T06:48:26;95771.13;;;15.53;87.67
40502;BME280;29631;49.168;9.848;2022-11-04T06:50:59;95729.53;;;15.27;87.85
40502;BME280;29631;49.168;9.848;2022-11-04T06:53:26;95761.31;;;15.58;87.72
40502;BME280;29631;49.168;9.848;2022-11-04T06:55:52;95754.72;;;15.61;87.63
40502;BME280;29631;49.168;9.848;2022-11-04T06:58:18;95763.22;;;15.63;87.85
40502;BME280;29631;49.168;9.848;2022-11-04T07:00:50;95764.81;;;15.64;87.49
40502;BME280;29631;49.168;9.848;2022-11-04T07:03:17;95764.59;;;15.70;87.81
40502;BME280;29631;49.168;9.848;2022-11-04T07:05:42;95758.47;;;15.75;87.60
40502;BME280;29631;49.168;9.848;2022-11-04T07:08:08;95758.53;;;15.80;87.65
40502;BME280;29631;49.168;9.848;2022-11-04T07:10:34;95755.91;;;15.90;87.78
40502;BME280;29631;49.168;9.848;2022-11-04T07:13:00;95722.59;;;15.77;87.33
40502;BME280;29631;49.168;9.848;2022-11-04T07:15:26;95737.25;;;15.80;87.34
40502;BME280;29631;49.168;9.848;2022-11-04T07:17:51;95751.13;;;15.92;87.26
40502;BME280;29631;49.168;9.848;2022-11-04T07:20:17;95739.41;;;15.88;87.36
40502;BME280;29631;49.168;9.848;2022-11-04T07:22:43;95680.53;;;15.54;88.33
40502;BME280;29631;49.168;9.848;2022-11-04T07:25:08;95726.16;;;15.93;87.36
40502;BME280;29631;49.168;9.848;2022-11-04T07:27:34;95753.31;;;15.99;87.72
40502;BME280;29631;49.168;9.848;2022-11-04T07:30:00;95715.47;;;15.83;87.76
40502;BME280;29631;49.168;9.848;2022-11-04T07:32:26;95734.16;;;15.98;87.63
40502;BME280;29631;49.168;9.848;2022-11-04T07:34:52;95721.34;;;15.85;87.48
40502;BME280;29631;49.168;9.848;2022-11-04T07:37:17;95730.72;;;16.02;87.58
40502;BME280;29631;49.168;9.848;2022-11-04T07:39:43;95710.69;;;15.85;87.17
40502;BME280;29631;49.168;9.848;2022-11-04T07:42:09;95730.94;;;16.00;88.12
40502;BME280;29631;49.168;9.848;2022-11-04T07:44:34;95723.44;;;15.88;87.41
40502;BME280;29631;49.168;9.848;2022-11-04T07:47:00;95682.97;;;15.61;87.54
40502;BME280;29631;49.168;9.848;2022-11-04T07:49:26;95719.72;;;15.84;87.64
40502;BME280;29631;49.168;9.848;2022-11-04T07:51:52;95731.47;;;15.93;87.86
40502;BME280;29631;49.168;9.848;2022-11-04T07:54:17;95734.16;;;15.98;87.71
40502;BME280;29631;49.168;9.848;2022-11-04T07:56:43;95727.72;;;15.94;87.14
40502;BME280;29631;49.168;9.848;2022-11-04T07:59:09;95672.31;;;15.56;87.54
40502;BME280;29631;49.168;9.848;2022-11-04T08:01:35;95766.34;;;16.06;87.53
40502;BME280;29631;49.168;9.848;2022-11-04T08:04:01;95732.53;;;15.92;87.45
40502;BME280;29631;49.168;9.848;2022-11-04T08:06:27;95760.25;;;16.10;87.43
40502;BME280;29631;49.168;9.848;2022-11-04T08:08:54;95739.19;;;15.94;87.50
40502;BME280;29631;49.168;9.848;2022-11-04T08:11:23;95763.19;;;16.14;87.93
40502;BME280;29631;49.168;9.848;2022-11-04T08:13:53;95757.03;;;16.03;87.55
40502;BME280;29631;49.168;9.848;2022-11-04T08:16:22;95727.19;;;15.87;87.74
40502;BME280;29631;49.168;9.848;2022-11-04T08:18:50;95753.84;;;16.06;87.35
40502;BME280;29631;49.168;9.848;2022-11-04T08:21:20;95744.81;;;16.07;87.13
40502;BME280;29631;49.168;9.848;2022-11-04T08:23:46;95761.56;;;16.08;87.30
40502;BME280;29631;49.168;9.848;2022-11-04T08:26:16;95756.47;;;16.01;87.26
40502;BME280;29631;49.168;9.848;2022-11-04T08:28:42;95770.34;;;16.08;87.63
40502;BME280;29631;49.168;9.848;2022-11-04T08:31:21;95777.53;;;16.13;87.11
40502;BME280;29631;49.168;9.848;2022-11-04T08:33:48;95788.72;;;16.15;86.88
40502;BME280;29631;49.168;9.848;2022-11-04T08:36:32;95768.44;;;16.04;87.18
40502;BME280;29631;49.168;9.848;2022-11-04T08:38:58;95793.78;;;16.16;87.03
40502;BME280;29631;49.168;9.848;2022-11-04T08:41:28;95730.84;;;15.71;86.90
40502;BME280;29631;49.168;9.848;2022-11-04T08:43:57;95790.53;;;16.04;87.02
40502;BME280;29631;49.168;9.848;2022-11-04T08:46:33;95769.22;;;15.95;86.92
40502;BME280;29631;49.168;9.848;2022-11-04T08:49:00;95764.94;;;15.94;87.24
40502;BME280;29631;49.168;9.848;2022-11-04T08:51:27;95772.97;;;15.98;87.14
40502;BME280;29631;49.168;9.848;2022-11-04T08:53:53;95752.75;;;15.93;87.78
40502;BME280;29631;49.168;9.848;2022-11-04T08:56:29;95772.44;;;16.01;87.16
40502;BME280;29631;49.168;9.848;2022-11-04T08:58:56;95779.34;;;16.02;87.30
40502;BME280;29631;49.168;9.848;2022-11-04T09:01:23;95769.16;;;15.80;87.11
40502;BME280;29631;49.168;9.848;2022-11-04T09:03:50;95780.38;;;15.87;87.13
40502;BME280;29631;49.168;9.848;2022-11-04T09:06:30;95787.78;;;15.85;87.62
40502;BME280;29631;49.168;9.848;2022-11-04T09:08:56;95791.50;;;15.84;87.92
40502;BME280;29631;49.168;9.848;2022-11-04T09:11:28;95774.19;;;15.76;87.65
40502;BME280;29631;49.168;9.848;2022-11-04T09:13:54;95780.38;;;15.87;87.74
40502;BME280;29631;49.168;9.848;2022-11-04T09:16:20;95781.38;;;15.81;87.32
40502;BME280;29631;49.168;9.848;2022-11-04T09:18:46;95765.94;;;15.78;87.63
40502;BME280;29631;49.168;9.848;2022-11-04T09:21:12;95787.31;;;15.93;87.31
40502;BME280;29631;49.168;9.848;2022-11-04T09:23:39;95771.31;;;15.88;87.91
40502;BME280;29631;49.168;9.848;2022-11-04T09:26:12;95785.16;;;15.90;88.13
40502;BME280;29631;49.168;9.848;2022-11-04T09:28:39;95805.41;;;16.00;87.33
40502;BME280;29631;49.168;9.848;2022-11-04T09:31:17;95797.41;;;16.00;87.73
40502;BME280;29631;49.168;9.848;2022-11-04T09:33:43;95781.72;;;15.99;87.76
40502;BME280;29631;49.168;9.848;2022-11-04T09:36:10;95791.09;;;16.11;87.19
40502;BME280;29631;49.168;9.848;2022-11-04T09:38:39;95731.31;;;15.63;87.62
40502;BME280;29631;49.168;9.848;2022-11-04T09:41:48;95814.50;;;16.14;88.10
40502;BME280;29631;49.168;9.848;2022-11-04T09:46:56;95770.03;;;16.00;87.56
40502;BME280;29631;49.168;9.848;2022-11-04T09:49:26;95798.03;;;16.17;88.02
40502;BME280;29631;49.168;9.848;2022-11-04T09:51:53;95800.72;;;16.22;87.98
40502;BME280;29631;49.168;9.848;2022-11-04T09:54:24;95802.06;;;16.25;88.13
40502;BME280;29631;49.168;9.848;2022-11-04T09:56:51;95796.47;;;16.26;87.70
40502;BME280;29631;49.168;9.848;2022-11-04T09:59:32;95793.59;;;16.28;88.56
40502;BME280;29631;49.168;9.848;2022-11-04T10:02:50;95777.31;;;16.24;88.31
40502;BME280;29631;49.168;9.848;2022-11-04T10:05:50;95792.78;;;16.32;88.26
40502;BME280;29631;49.168;9.848;2022-11-04T10:11:20;95793.88;;;16.41;88.25
40502;BME280;29631;49.168;9.848;2022-11-04T10:19:33;95784.84;;;16.47;87.94
40502;BME280;29631;49.168;9.848;2022-11-04T10:25:20;95765.44;;;16.47;88.12
40502;BME280;29631;49.168;9.848;2022-11-04T10:27:46;95751.31;;;16.51;87.94
40502;BME280;29631;49.168;9.848;2022-11-04T10:30:20;95733.22;;;16.38;87.81
40502;BME280;29631;49.168;9.848;2022-11-04T10:32:58;95754.03;;;16.56;87.75
40502;BME280;29631;49.168;9.848;2022-11-04T10:35:34;95752.69;;;16.59;87.59
40502;BME280;29631;49.168;9.848;2022-11-04T10:41:01;95744.97;;;16.57;87.89
40502;BME280;29631;49.168;9.848;2022-11-04T10:43:35;95744.72;;;16.64;87.30
40502;BME280;29631;49.168;9.848;2022-11-04T10:52:17;95737.50;;;16.64;87.30
40502;BME280;29631;49.168;9.848;2022-11-04T10:54:47;95735.94;;;16.68;88.16
40502;BME280;29631;49.168;9.848;2022-11-04T10:57:25;95744.75;;;16.73;87.56
40502;BME280;29631;49.168;9.848;2022-11-04T10:59:59;95753.22;;;16.75;87.64
40502;BME280;29631;49.168;9.848;2022-11-04T11:07:52;95757.50;;;16.72;87.37
40502;BME280;29631;49.168;9.848;2022-11-04T11:10:26;95743.91;;;16.63;87.83
40502;BME280;29631;49.168;9.848;2022-11-04T11:12:59;95746.03;;;16.61;87.23
40502;BME280;29631;49.168;9.848;2022-11-04T11:15:32;95742.31;;;16.62;88.50
40502;BME280;29631;49.168;9.848;2022-11-04T11:18:13;95741.78;;;16.55;88.06
40502;BME280;29631;49.168;9.848;2022-11-04T11:20:42;95721.00;;;16.52;87.95
40502;BME280;29631;49.168;9.848;2022-11-04T11:23:48;95722.09;;;16.56;87.67
40502;BME280;29631;49.168;9.848;2022-11-04T11:26:20;95732.72;;;16.66;87.88
40502;BME280;29631;49.168;9.848;2022-11-04T11:28:56;95710.34;;;16.52;87.14
40502;BME280;29631;49.168;9.848;2022-11-04T11:31:37;95718.88;;;16.64;86.65
40502;BME280;29631;49.168;9.848;2022-11-04T11:34:19;95699.19;;;16.55;86.95
40502;BME280;29631;49.168;9.848;2022-11-04T11:36:46;95705.59;;;16.69;87.23
40502;BME280;29631;49.168;9.848;2022-11-04T11:39:20;95694.13;;;16.69;86.76
40502;BME280;29631;49.168;9.848;2022-11-04T11:42:10;95695.75;;;16.79;87.33
40502;BME280;29631;49.168;9.848;2022-11-04T11:44:41;95685.38;;;16.83;86.89
40502;BME280;29631;49.168;9.848;2022-11-04T11:47:41;95682.97;;;16.91;87.26
40502;BME280;29631;49.168;9.848;2022-11-04T11:50:23;95688.28;;;16.96;86.29
40502;BME280;29631;49.168;9.848;2022-11-04T11:53:16;95685.88;;;17.00;86.27
40502;BME280;29631;49.168;9.848;2022-11-04T11:56:22;95704.50;;;17.10;86.49
40502;BME280;29631;49.168;9.848;2022-11-04T11:59:07;95688.78;;;17.13;86.77
40502;BME280;29631;49.168;9.848;2022-11-04T12:05:13;95694.91;;;17.29;85.34
40502;BME280;29631;49.168;9.848;2022-11-04T12:10:32;95699.16;;;17.40;85.62
40502;BME280;29631;49.168;9.848;2022-11-04T12:13:27;95690.34;;;17.39;85.11
40502;BME280;29631;49.168;9.848;2022-11-04T12:19:01;95715.56;;;17.76;86.00
40502;BME280;29631;49.168;9.848;2022-11-04T12:21:37;95705.44;;;17.78;85.44
40502;BME280;29631;49.168;9.848;2022-11-04T12:27:26;95701.38;;;17.96;85.54
40502;BME280;29631;49.168;9.848;2022-11-04T12:30:15;95699.53;;;17.91;85.26
40502;BME280;29631;49.168;9.848;2022-11-04T12:43:39;95724.56;;;17.95;85.26
40502;BME280;29631;49.168;9.848;2022-11-04T12:55:00;95737.97;;;17.85;83.80
40502;BME280;29631;49.168;9.848;2022-11-04T12:57:49;95751.00;;;17.87;83.71
40502;BME280;29631;49.168;9.848;2022-11-04T13:00:20;95744.06;;;17.86;83.78
40502;BME280;29631;49.168;9.848;2022-11-04T13:03:30;95752.63;;;17.83;83.33
40502;BME280;29631;49.168;9.848;2022-11-04T13:06:07;95745.69;;;17.77;83.91
40502;BME280;29631;49.168;9.848;2022-11-04T13:08:46;95741.69;;;17.74;83.40
40502;BME280;29631;49.168;9.848;2022-11-04T13:11:45;95747.03;;;17.79;83.70
40502;BME280;29631;49.168;9.848;2022-11-04T13:14:26;95749.19;;;17.77;83.75
40502;BME280;29631;49.168;9.848;2022-11-04T13:17:00;95722.53;;;17.62;82.91
40502;BME280;29631;49.168;9.848;2022-11-04T13:19:50;95738.53;;;17.62;82.58
40502;BME280;29631;49.168;9.848;2022-11-04T13:22:22;95745.47;;;17.63;83.08
40502;BME280;29631;49.168;9.848;2022-11-04T13:25:00;95736.41;;;17.64;83.18
40502;BME280;29631;49.168;9.848;2022-11-04T13:27:36;95742.78;;;17.68;82.43
40502;BME280;29631;49.168;9.848;2022-11-04T13:30:38;95740.38;;;17.72;82.19
40502;BME280;29631;49.168;9.848;2022-11-04T13:33:28;95735.59;;;17.74;82.73
40502;BME280;29631;49.168;9.848;2022-11-04T13:38:51;95737.16;;;17.80;82.87
40502;BME280;29631;49.168;9.848;2022-11-04T13:44:28;95746.75;;;17.81;82.90
40502;BME280;29631;49.168;9.848;2022-11-04T13:47:03;95750.25;;;17.76;82.45
40502;BME280;29631;49.168;9.848;2022-11-04T13:49:34;95750.53;;;17.70;82.68
40502;BME280;29631;49.168;9.848;2022-11-04T13:52:10;95767.31;;;17.70;82.40
40502;BME280;29631;49.168;9.848;2022-11-04T13:54:56;95775.84;;;17.72;83.01
40502;BME280;29631;49.168;9.848;2022-11-04T13:57:26;95766.53;;;17.60;82.47
40502;BME280;29631;49.168;9.848;2022-11-04T14:08:12;95784.94;;;17.42;83.46
40502;BME280;29631;49.168;9.848;2022-11-04T14:18:44;95778.59;;;17.28;83.82
40502;BME280;29631;49.168;9.848;2022-11-04T14:21:20;95761.22;;;17.20;84.27
40502;BME280;29631;49.168;9.848;2022-11-04T14:23:53;95784.19;;;17.31;83.75
40502;BME280;29631;49.168;9.848;2022-11-04T14:26:43;95779.13;;;17.35;84.52
40502;BME280;29631;49.168;9.848;2022-11-04T14:29:24;95772.44;;;17.27;84.39
40502;BME280;29631;49.168;9.848;2022-11-04T14:31:53;95803.63;;;17.47;84.65
40502;BME280;29631;49.168;9.848;2022-11-04T14:34:38;95779.63;;;17.37;84.61
40502;BME280;29631;49.168;9.848;2022-11-04T14:37:26;95798.28;;;17.51;84.57
40502;BME280;29631;49.168;9.848;2022-11-04T14:39:58;95806.81;;;17.58;84.39
40502;BME280;29631;49.168;9.848;2022-11-04T14:42:53;95792.94;;;17.56;85.14
40502;BME280;29631;49.168;9.848;2022-11-04T14:45:23;95799.88;;;17.57;85.30
40502;BME280;29631;49.168;9.848;2022-11-04T14:48:14;95798.53;;;17.60;84.76
40502;BME280;29631;49.168;9.848;2022-11-04T14:50:46;95798.28;;;17.56;85.38
40502;BME280;29631;49.168;9.848;2022-11-04T14:53:35;95773.25;;;17.48;85.68
40502;BME280;29631;49.168;9.848;2022-11-04T14:56:22;95803.59;;;17.56;85.45
40502;BME280;29631;49.168;9.848;2022-11-04T14:59:07;95791.88;;;17.52;85.18
40502;BME280;29631;49.168;9.848;2022-11-04T15:01:44;95791.63;;;17.54;85.79
40502;BME280;29631;49.168;9.848;2022-11-04T15:04:27;95803.59;;;17.56;85.86
40502;BME280;29631;49.168;9.848;2022-11-04T15:06:59;95794.56;;;17.48;85.20
40502;BME280;29631;49.168;9.848;2022-11-04T15:09:32;95821.16;;;17.67;85.12
40502;BME280;29631;49.168;9.848;2022-11-04T15:14:54;95818.25;;;17.64;85.74
40502;BME280;29631;49.168;9.848;2022-11-04T15:17:23;95820.94;;;17.69;85.84
40502;BME280;29631;49.168;9.848;2022-11-04T15:19:55;95818.53;;;17.62;85.62
40502;BME280;29631;49.168;9.848;2022-11-04T15:22:22;95812.41;;;17.57;85.77
40502;BME280;29631;49.168;9.848;2022-11-04T15:24:48;95800.94;;;17.51;85.70
40502;BME280;29631;49.168;9.848;2022-11-04T15:27:22;95793.50;;;17.44;85.74
40502;BME280;29631;49.168;9.848;2022-11-04T15:30:00;95814.81;;;17.58;86.53